Terminal Aerodrome Forecast
Issued by NWS

Home | Current Version | Previous Version | Text Only | Print | Product List | Glossary On
Versions: 1 2 3 4 5 6 7 8 9 10 11 12 13 14 15 16 17 18 19 20 21 22 23 24 25 26 27 28 29 30 31 32 33 34 35 36 37 38 39
000
FTUS41 KOKX 221136
TAFHPN
TAF
KHPN 221136Z 2212/2312 VRB02KT 1/4SM FG VV002
     FM221400 08005KT 1SM BR OVC004
     FM221700 07008KT 4SM BR SCT005 OVC010
     FM230000 06013G20KT 5SM BR OVC010
     FM230300 05014G23KT 6SM BR OVC010
     FM230900 05018G28KT 5SM -RA BR OVC010
      AMD NOT SKED=

USA.gov is the U.S. government's official web portal to all federal, state and local government web resources and services.